createdAt,value
2022-11-16T00:02:14.170Z,80.47
2022-11-16T00:04:42.636Z,80.43
2022-11-16T00:07:11.288Z,80.42
2022-11-16T00:09:39.699Z,80.30
2022-11-16T00:12:10.943Z,80.24
2022-11-16T00:14:39.030Z,80.17
2022-11-16T00:17:07.188Z,80.12
2022-11-16T00:19:35.359Z,80.11
2022-11-16T00:22:03.535Z,80.21
2022-11-16T00:24:31.607Z,80.05
2022-11-16T00:26:59.776Z,80.07
2022-11-16T00:29:27.952Z,79.86
2022-11-16T00:31:56.431Z,79.81
2022-11-16T00:34:25.116Z,79.78
2022-11-16T00:36:53.288Z,79.63
2022-11-16T00:39:21.531Z,79.13
2022-11-16T00:41:50.659Z,78.67
2022-11-16T00:44:19.135Z,78.38
2022-11-16T00:46:47.313Z,77.87
2022-11-16T00:49:15.592Z,77.91
2022-11-16T00:51:44.064Z,77.61
2022-11-16T00:54:12.651Z,77.49
2022-11-16T00:56:41.233Z,77.18
2022-11-16T00:59:09.407Z,77.03
2022-11-16T01:01:37.664Z,77.06
2022-11-16T01:04:05.954Z,76.32
2022-11-16T01:06:34.332Z,75.92
2022-11-16T01:09:02.608Z,75.74
2022-11-16T01:11:49.312Z,75.70
2022-11-16T01:14:17.488Z,75.81
2022-11-16T01:16:45.559Z,75.98
2022-11-16T01:19:13.733Z,75.82
2022-11-16T01:21:42.012Z,75.73
2022-11-16T01:24:10.289Z,75.59
2022-11-16T01:26:38.566Z,75.62
2022-11-16T01:29:07.246Z,75.76
2022-11-16T01:31:41.442Z,75.85
2022-11-16T01:34:10.044Z,75.88
2022-11-16T01:36:38.314Z,75.88
2022-11-16T01:39:06.803Z,75.87
2022-11-16T01:41:44.938Z,75.80
2022-11-16T01:44:31.635Z,75.75
2022-11-16T01:47:11.977Z,75.62
2022-11-16T01:49:46.228Z,75.43
2022-11-16T01:52:19.786Z,75.27
2022-11-16T01:54:51.741Z,75.18
2022-11-16T01:57:37.120Z,74.90
2022-11-16T02:00:11.024Z,74.55
2022-11-16T02:02:42.477Z,74.08
2022-11-16T02:05:21.507Z,73.95
2022-11-16T02:08:17.319Z,73.63
2022-11-16T02:11:04.638Z,73.32
2022-11-16T02:13:51.639Z,73.50
2022-11-16T02:16:41.767Z,73.60
2022-11-16T02:19:31.107Z,73.59
2022-11-16T02:22:25.839Z,73.41
2022-11-16T02:25:17.523Z,73.50
2022-11-16T02:27:45.492Z,73.53
2022-11-16T02:30:14.256Z,73.55
2022-11-16T02:32:47.622Z,73.43
2022-11-16T02:35:57.118Z,73.35
2022-11-16T02:38:31.300Z,73.40
2022-11-16T02:41:08.409Z,73.39
2022-11-16T02:43:47.035Z,73.27
2022-11-16T02:46:21.368Z,73.05
2022-11-16T02:48:56.383Z,72.92
2022-11-16T02:51:27.534Z,72.80
2022-11-16T02:54:13.190Z,72.70
2022-11-16T02:57:04.217Z,72.77
2022-11-16T02:59:44.953Z,72.61
2022-11-16T03:02:38.559Z,72.41
2022-11-16T03:05:13.692Z,72.32
2022-11-16T03:07:52.649Z,72.34
2022-11-16T03:10:41.060Z,72.29
2022-11-16T03:13:12.817Z,72.27
2022-11-16T03:15:42.204Z,72.11
2022-11-16T03:18:16.814Z,72.02
2022-11-16T03:20:46.725Z,72.07
2022-11-16T03:23:14.824Z,71.95
2022-11-16T03:25:53.032Z,71.79
2022-11-16T03:28:29.400Z,71.81
2022-11-16T03:31:15.081Z,71.85
2022-11-16T03:33:48.713Z,71.80
2022-11-16T03:36:31.381Z,71.87
2022-11-16T03:39:06.610Z,71.90
2022-11-16T03:41:37.675Z,71.83
2022-11-16T03:44:07.407Z,71.85
2022-11-16T03:46:35.600Z,71.99
2022-11-16T03:49:03.670Z,72.18
2022-11-16T03:51:34.818Z,72.05
2022-11-16T03:54:03.182Z,72.21
2022-11-16T03:56:31.940Z,72.17
2022-11-16T03:59:00.019Z,72.19
2022-11-16T04:01:30.398Z,71.97
2022-11-16T04:03:58.807Z,71.99
2022-11-16T04:06:45.618Z,72.04
2022-11-16T04:09:22.901Z,72.03
2022-11-16T04:12:10.025Z,72.03
2022-11-16T04:14:57.651Z,71.75
2022-11-16T04:17:45.687Z,71.18
2022-11-16T04:20:34.243Z,69.33
2022-11-16T04:23:29.582Z,68.80
2022-11-16T04:25:57.924Z,68.60
2022-11-16T04:28:32.333Z,68.57
2022-11-16T04:31:23.249Z,68.07
2022-11-16T04:34:30.542Z,68.12
2022-11-16T04:37:17.758Z,68.52
2022-11-16T04:39:46.249Z,68.59
2022-11-16T04:42:15.961Z,68.78
2022-11-16T04:45:12.284Z,68.82
2022-11-16T04:47:51.044Z,69.24
2022-11-16T04:50:20.584Z,69.25
2022-11-16T04:52:49.704Z,69.48
2022-11-16T04:55:17.965Z,69.91
2022-11-16T04:57:46.615Z,70.14
2022-11-16T05:00:16.063Z,70.61
2022-11-16T05:02:45.440Z,70.67
2022-11-16T05:05:13.896Z,70.80
2022-11-16T05:07:44.074Z,71.09
2022-11-16T05:10:17.360Z,71.30
2022-11-16T05:12:45.737Z,71.33
2022-11-16T05:15:14.932Z,71.23
2022-11-16T05:17:43.310Z,71.10
2022-11-16T05:20:35.183Z,70.74
2022-11-16T05:23:05.155Z,70.63
2022-11-16T05:25:37.184Z,70.27
2022-11-16T05:28:08.075Z,70.06
2022-11-16T05:30:39.401Z,69.89
2022-11-16T05:33:07.355Z,70.06
2022-11-16T05:35:38.510Z,69.92
2022-11-16T05:38:07.502Z,69.90
2022-11-16T05:40:39.464Z,69.75
2022-11-16T05:43:07.481Z,69.96
2022-11-16T05:45:39.295Z,69.96
2022-11-16T05:48:07.673Z,69.70
2022-11-16T05:50:41.294Z,69.46
2022-11-16T05:53:15.388Z,69.51
2022-11-16T05:55:43.603Z,69.45
2022-11-16T05:58:12.171Z,69.35
2022-11-16T06:00:40.218Z,69.40
2022-11-16T06:03:09.353Z,69.34
2022-11-16T06:05:40.413Z,68.99
2022-11-16T06:08:09.334Z,68.82
2022-11-16T06:10:37.510Z,68.80
2022-11-16T06:13:05.993Z,68.70
2022-11-16T06:15:38.455Z,68.79
2022-11-16T06:18:07.766Z,68.82
2022-11-16T06:20:39.423Z,68.84
2022-11-16T06:23:07.792Z,68.87
2022-11-16T06:25:39.847Z,68.98
2022-11-16T06:28:08.458Z,69.13
2022-11-16T06:30:41.428Z,69.33
2022-11-16T06:33:09.912Z,69.30
2022-11-16T06:35:38.163Z,69.31
2022-11-16T06:38:06.376Z,69.57
2022-11-16T06:40:35.176Z,69.64
2022-11-16T06:43:03.891Z,69.95
2022-11-16T06:45:32.003Z,70.11
2022-11-16T06:48:01.196Z,70.22
2022-11-16T06:50:29.369Z,70.40
2022-11-16T06:53:00.922Z,70.74
2022-11-16T06:55:30.018Z,70.72
2022-11-16T06:57:58.410Z,70.91
2022-11-16T07:00:28.104Z,70.66
2022-11-16T07:02:57.306Z,70.25
2022-11-16T07:05:25.573Z,69.97
2022-11-16T07:07:57.745Z,69.28
2022-11-16T07:10:26.325Z,69.02
2022-11-16T07:12:55.329Z,68.88
2022-11-16T07:15:24.310Z,68.71
2022-11-16T07:17:52.798Z,68.55
2022-11-16T07:20:21.173Z,68.45
2022-11-16T07:22:49.236Z,68.08
2022-11-16T07:25:18.636Z,67.52
2022-11-16T07:27:47.737Z,67.33
2022-11-16T07:30:16.929Z,67.07
2022-11-16T07:33:00.463Z,67.62
2022-11-16T07:35:47.079Z,68.33
2022-11-16T07:38:18.016Z,68.64
2022-11-16T07:40:46.897Z,68.72
2022-11-16T07:43:17.781Z,68.77
2022-11-16T07:46:45.364Z,69.15
2022-11-16T07:49:11.181Z,69.33
2022-11-16T07:51:48.911Z,69.72
2022-11-16T07:54:27.127Z,70.00
2022-11-16T07:56:55.705Z,70.17
2022-11-16T07:59:23.882Z,70.39
2022-11-16T08:01:52.119Z,70.32
2022-11-16T08:04:20.529Z,70.29
2022-11-16T08:06:52.078Z,70.45
2022-11-16T08:09:20.627Z,70.28
2022-11-16T08:11:51.188Z,70.30
2022-11-16T08:14:19.770Z,70.29
2022-11-16T08:16:49.379Z,69.79
2022-11-16T08:19:18.375Z,69.58
2022-11-16T08:21:46.410Z,68.85
2022-11-16T08:24:15.129Z,67.84
2022-11-16T08:26:43.713Z,68.11
2022-11-16T08:29:15.366Z,67.21
2022-11-16T08:31:47.740Z,66.84
2022-11-16T08:34:19.087Z,65.54
2022-11-16T08:36:50.498Z,65.55
2022-11-16T08:39:19.739Z,65.04
2022-11-16T08:41:47.797Z,65.25
2022-11-16T08:44:16.081Z,65.41
2022-11-16T08:46:46.704Z,65.13
2022-11-16T08:49:22.348Z,65.26
2022-11-16T08:51:50.422Z,65.33
2022-11-16T08:54:19.854Z,65.59
2022-11-16T08:56:49.019Z,65.50
2022-11-16T08:59:17.808Z,65.50
2022-11-16T09:01:50.384Z,65.54
2022-11-16T09:04:18.889Z,65.89
2022-11-16T09:06:46.934Z,66.05
2022-11-16T09:09:15.016Z,66.35
2022-11-16T09:11:43.381Z,66.26
2022-11-16T09:14:13.170Z,66.31
2022-11-16T09:16:41.267Z,66.31
2022-11-16T09:19:09.335Z,66.35
2022-11-16T09:21:37.916Z,66.44
2022-11-16T09:24:06.512Z,66.17
2022-11-16T09:26:34.620Z,66.25
2022-11-16T09:29:04.587Z,66.37
2022-11-16T09:31:34.935Z,66.61
2022-11-16T09:34:03.448Z,66.45
2022-11-16T09:36:32.201Z,65.79
2022-11-16T09:41:48.543Z,65.44
2022-11-16T09:44:31.513Z,65.50
2022-11-16T09:47:01.306Z,65.93
2022-11-16T09:49:33.699Z,66.00
2022-11-16T09:52:13.115Z,66.32
2022-11-16T09:54:45.322Z,66.93
2022-11-16T09:57:29.425Z,67.36
2022-11-16T10:00:14.641Z,67.66
2022-11-16T10:02:47.942Z,67.86
2022-11-16T10:05:24.384Z,67.98
2022-11-16T10:07:59.875Z,68.05
2022-11-16T10:10:37.832Z,68.45
2022-11-16T10:13:33.716Z,68.42
2022-11-16T10:16:22.815Z,68.32
2022-11-16T10:19:20.269Z,68.14
2022-11-16T10:21:55.917Z,68.09
2022-11-16T10:24:43.575Z,68.34
2022-11-16T10:27:30.355Z,68.65
2022-11-16T10:30:35.804Z,68.92
2022-11-16T10:33:19.628Z,69.27
2022-11-16T10:35:54.087Z,69.14
2022-11-16T10:38:27.608Z,69.39
2022-11-16T10:41:16.398Z,69.59
2022-11-16T10:43:45.675Z,69.97
2022-11-16T10:46:31.274Z,69.93
2022-11-16T10:49:05.481Z,69.85
2022-11-16T10:51:33.671Z,69.48
2022-11-16T10:54:01.870Z,68.81
2022-11-16T10:56:41.566Z,68.69
2022-11-16T10:59:11.414Z,68.94
2022-11-16T11:01:50.111Z,69.16
2022-11-16T11:04:27.051Z,69.28
2022-11-16T11:06:57.819Z,69.28
2022-11-16T11:09:30.864Z,69.38
2022-11-16T11:12:37.031Z,69.27
2022-11-16T11:15:10.788Z,69.26
2022-11-16T11:17:44.094Z,68.95
2022-11-16T11:20:18.211Z,68.35
2022-11-16T11:22:57.801Z,68.10
2022-11-16T11:25:33.769Z,68.12
2022-11-16T11:28:28.840Z,67.82
2022-11-16T11:31:04.709Z,68.04
2022-11-16T11:33:48.746Z,68.04
2022-11-16T11:36:20.047Z,67.68
2022-11-16T11:38:57.523Z,67.26
2022-11-16T11:41:28.637Z,67.48
2022-11-16T11:44:15.247Z,67.34
2022-11-16T11:47:42.241Z,67.46
2022-11-16T11:49:52.287Z,67.67
2022-11-16T11:52:33.666Z,67.76
2022-11-16T11:55:05.954Z,67.76
2022-11-16T11:57:39.700Z,68.00
2022-11-16T12:00:09.403Z,67.83
2022-11-16T12:03:04.094Z,67.70
2022-11-16T12:06:02.761Z,67.72
2022-11-16T12:08:47.491Z,67.82
2022-11-16T12:11:21.835Z,67.75
2022-11-16T12:14:05.218Z,68.26
2022-11-16T12:17:05.872Z,68.47
2022-11-16T12:19:59.751Z,68.95
2022-11-16T12:22:33.769Z,69.38
2022-11-16T12:25:01.696Z,69.22
2022-11-16T12:27:51.095Z,69.67
2022-11-16T12:30:22.201Z,69.73
2022-11-16T12:33:05.186Z,69.74
2022-11-16T12:35:38.976Z,69.75
2022-11-16T12:38:24.851Z,69.64
2022-11-16T12:41:31.759Z,69.49
2022-11-16T12:44:03.387Z,69.34
2022-11-16T12:47:01.358Z,69.19
2022-11-16T12:49:38.535Z,69.18
2022-11-16T12:52:18.999Z,69.42
2022-11-16T12:58:14.639Z,68.07
2022-11-16T13:00:52.112Z,68.19
2022-11-16T13:03:39.649Z,67.55
2022-11-16T13:06:15.448Z,67.37
2022-11-16T13:09:04.021Z,67.16
2022-11-16T13:11:47.078Z,67.27
2022-11-16T13:14:23.580Z,67.25
2022-11-16T13:16:52.514Z,66.93
2022-11-16T13:19:21.500Z,67.23
2022-11-16T13:22:14.890Z,66.96
2022-11-16T13:24:54.813Z,67.21
2022-11-16T13:28:09.477Z,67.44
2022-11-16T13:31:11.063Z,67.29
2022-11-16T13:33:51.370Z,67.85
2022-11-16T13:36:43.796Z,67.80
2022-11-16T13:39:22.261Z,67.80
2022-11-16T13:42:05.741Z,67.54
2022-11-16T13:44:34.904Z,67.49
2022-11-16T13:47:06.451Z,67.53
2022-11-16T13:49:43.886Z,67.22
2022-11-16T13:52:54.051Z,67.48
2022-11-16T13:55:15.549Z,67.54
2022-11-16T13:57:52.592Z,67.54
2022-11-16T14:00:33.776Z,67.11
2022-11-16T14:03:16.689Z,66.68
2022-11-16T14:05:47.361Z,66.62
2022-11-16T14:08:24.960Z,66.83
2022-11-16T14:10:53.187Z,66.62
2022-11-16T14:13:30.315Z,66.78
2022-11-16T14:16:17.707Z,66.65
2022-11-16T14:18:54.063Z,66.71
2022-11-16T14:21:51.826Z,66.67
2022-11-16T14:24:30.685Z,66.85
2022-11-16T14:27:06.605Z,66.83
2022-11-16T14:30:10.014Z,66.90
2022-11-16T14:32:46.037Z,66.55
2022-11-16T14:35:40.760Z,66.49
2022-11-16T14:38:44.561Z,66.24
2022-11-16T14:41:22.820Z,66.74
2022-11-16T14:43:53.956Z,66.60
2022-11-16T14:46:26.532Z,66.66
2022-11-16T14:48:56.811Z,66.76
2022-11-16T14:51:33.113Z,66.40
2022-11-16T14:54:05.415Z,66.22
2022-11-16T14:56:33.477Z,66.10
2022-11-16T14:59:03.465Z,65.92
2022-11-16T15:01:35.725Z,66.31
2022-11-16T15:04:07.146Z,66.28
2022-11-16T15:06:49.080Z,66.64
2022-11-16T15:09:32.953Z,66.51
2022-11-16T15:12:27.067Z,66.32
2022-11-16T15:14:58.060Z,66.16
2022-11-16T15:17:31.692Z,66.42
2022-11-16T15:20:14.390Z,66.50
2022-11-16T15:22:45.360Z,66.21
2022-11-16T15:25:35.548Z,66.12
2022-11-16T15:28:13.885Z,66.29
2022-11-16T15:30:45.065Z,66.65
2022-11-16T15:33:19.150Z,66.61
2022-11-16T15:35:47.529Z,66.49
2022-11-16T15:38:18.016Z,66.74
2022-11-16T15:41:00.484Z,66.78
2022-11-16T15:43:55.336Z,66.88
2022-11-16T15:46:33.532Z,67.03
2022-11-16T15:49:02.523Z,66.67
2022-11-16T15:51:34.297Z,66.77
2022-11-16T15:54:23.751Z,66.77
2022-11-16T15:56:55.167Z,66.94
2022-11-16T15:59:32.044Z,67.06
2022-11-16T16:02:00.252Z,67.15
2022-11-16T16:04:29.252Z,67.12
2022-11-16T16:06:59.995Z,66.97
2022-11-16T16:09:39.617Z,66.50
2022-11-16T16:12:26.535Z,66.65
2022-11-16T16:15:23.090Z,67.01
2022-11-16T16:17:53.028Z,67.04
2022-11-16T16:20:24.248Z,66.83
2022-11-16T16:22:52.447Z,66.57
2022-11-16T16:25:31.941Z,66.60
2022-11-16T16:28:00.393Z,66.70
2022-11-16T16:30:30.232Z,66.36
2022-11-16T16:32:59.041Z,66.21
2022-11-16T16:35:27.741Z,66.12
2022-11-16T16:38:01.282Z,66.52
2022-11-16T16:40:29.757Z,66.88
2022-11-16T16:42:58.127Z,67.12
2022-11-16T16:45:38.268Z,67.23
2022-11-16T16:48:06.926Z,67.21
2022-11-16T16:50:35.438Z,67.14
2022-11-16T16:53:03.960Z,66.91
2022-11-16T16:55:37.012Z,66.86
2022-11-16T16:58:06.145Z,66.79
2022-11-16T17:00:34.293Z,67.05
2022-11-16T17:03:02.476Z,66.68
2022-11-16T17:05:32.925Z,66.64
2022-11-16T17:08:01.544Z,66.83
2022-11-16T17:10:29.532Z,66.50
2022-11-16T17:12:57.720Z,66.58
2022-11-16T17:15:26.646Z,66.72
2022-11-16T17:17:54.806Z,66.67
2022-11-16T17:20:22.745Z,66.78
2022-11-16T17:22:50.739Z,66.33
2022-11-16T17:25:18.810Z,66.33
2022-11-16T17:27:46.993Z,66.34
2022-11-16T17:30:16.038Z,66.03
2022-11-16T17:32:44.147Z,66.07
2022-11-16T17:35:12.941Z,66.32
2022-11-16T17:37:40.935Z,66.54
2022-11-16T17:40:09.838Z,66.78
2022-11-16T17:42:38.067Z,66.51
2022-11-16T17:45:06.988Z,66.91
2022-11-16T17:47:35.354Z,66.83
2022-11-16T17:50:04.737Z,66.51
2022-11-16T17:52:32.909Z,66.31
2022-11-16T17:55:00.980Z,66.15
2022-11-16T17:57:29.200Z,66.18
2022-11-16T17:59:57.367Z,66.17
2022-11-16T18:02:25.527Z,65.92
2022-11-16T18:04:53.540Z,66.02
2022-11-16T18:07:21.712Z,66.13
2022-11-16T18:09:49.919Z,66.06
2022-11-16T18:12:17.984Z,65.97
2022-11-16T18:15:00.133Z,66.09
2022-11-16T18:17:35.528Z,65.86
2022-11-16T18:20:04.928Z,65.84
2022-11-16T18:22:32.900Z,65.80
2022-11-16T18:25:00.857Z,65.94
2022-11-16T18:27:28.853Z,65.97
2022-11-16T18:29:56.868Z,66.15
2022-11-16T18:32:24.843Z,66.03
2022-11-16T18:34:53.256Z,65.84
2022-11-16T18:37:21.330Z,65.92
2022-11-16T18:39:49.271Z,65.87
2022-11-16T18:42:17.357Z,65.74
2022-11-16T18:44:45.915Z,65.86
2022-11-16T18:47:13.904Z,65.97
2022-11-16T18:49:41.928Z,66.03
2022-11-16T18:52:10.053Z,65.95
2022-11-16T18:54:38.222Z,65.96
2022-11-16T18:57:06.292Z,65.86
2022-11-16T18:59:34.316Z,66.09
2022-11-16T19:02:02.547Z,65.98
2022-11-16T19:04:30.813Z,65.97
2022-11-16T19:06:59.037Z,65.58
2022-11-16T19:09:27.977Z,65.51
2022-11-16T19:11:56.049Z,65.62
2022-11-16T19:14:24.187Z,65.50
2022-11-16T19:16:56.862Z,65.31
2022-11-16T19:19:27.944Z,65.30
2022-11-16T19:21:57.141Z,65.10
2022-11-16T19:24:25.205Z,65.16
2022-11-16T19:26:53.278Z,65.06
2022-11-16T19:29:21.454Z,64.94
2022-11-16T19:31:49.563Z,64.96
2022-11-16T19:34:17.802Z,65.11
2022-11-16T19:36:45.862Z,65.13
2022-11-16T19:39:13.804Z,65.42
2022-11-16T19:41:41.791Z,65.30
2022-11-16T19:44:10.077Z,65.57
2022-11-16T19:46:38.152Z,65.73
2022-11-16T19:49:06.429Z,65.90
2022-11-16T19:51:34.724Z,65.74
2022-11-16T19:54:03.266Z,65.77
2022-11-16T19:56:31.493Z,65.68
2022-11-16T19:59:00.779Z,65.64
2022-11-16T20:01:29.717Z,65.79
2022-11-16T20:04:00.381Z,66.00
2022-11-16T20:06:31.279Z,66.24
2022-11-16T20:09:04.153Z,66.41
2022-11-16T20:11:36.476Z,66.29
2022-11-16T20:14:07.330Z,66.31
2022-11-16T20:16:39.308Z,66.41
2022-11-16T20:19:09.636Z,66.44
2022-11-16T20:21:42.523Z,66.37
2022-11-16T20:24:19.959Z,66.49
2022-11-16T20:26:49.266Z,66.62
2022-11-16T20:29:20.303Z,66.59
2022-11-16T20:31:48.335Z,66.38
2022-11-16T20:34:17.675Z,66.53
2022-11-16T20:36:47.385Z,66.51
2022-11-16T20:39:17.677Z,66.31
2022-11-16T20:41:46.176Z,66.14
2022-11-16T20:44:22.338Z,66.03
2022-11-16T20:46:52.756Z,65.92
2022-11-16T20:49:21.167Z,65.67
2022-11-16T20:51:51.298Z,65.75
2022-11-16T20:54:19.335Z,65.63
2022-11-16T20:56:49.737Z,65.43
2022-11-16T20:59:18.495Z,65.25
2022-11-16T21:01:48.890Z,65.03
2022-11-16T21:04:17.251Z,65.12
2022-11-16T21:06:45.627Z,65.02
2022-11-16T21:09:22.701Z,65.19
2022-11-16T21:12:09.764Z,64.58
2022-11-16T21:14:37.836Z,64.42
2022-11-16T21:17:05.866Z,64.39
2022-11-16T21:19:33.938Z,64.59
2022-11-16T21:22:02.002Z,64.41
2022-11-16T21:24:31.885Z,64.36
2022-11-16T21:26:59.987Z,64.48
2022-11-16T21:29:28.414Z,64.55
2022-11-16T21:31:56.546Z,64.44
2022-11-16T21:34:25.635Z,64.52
2022-11-16T21:36:54.011Z,64.50
2022-11-16T21:39:22.469Z,64.38
2022-11-16T21:41:50.560Z,64.28
2022-11-16T21:44:18.502Z,63.81
2022-11-16T21:46:46.600Z,63.80
2022-11-16T21:49:14.536Z,63.47
2022-11-16T21:51:42.636Z,63.70
2022-11-16T21:54:10.639Z,63.58
2022-11-16T21:56:38.692Z,63.91
2022-11-16T21:59:06.664Z,63.75
2022-11-16T22:01:54.847Z,63.58
2022-11-16T22:04:41.561Z,63.61
2022-11-16T22:07:33.036Z,63.70
2022-11-16T22:10:02.723Z,63.87
2022-11-16T22:15:35.938Z,64.06
2022-11-16T22:18:04.659Z,64.03
2022-11-16T22:20:32.899Z,63.86
2022-11-16T22:23:00.931Z,63.82
2022-11-16T22:25:29.246Z,63.53
2022-11-16T22:30:51.199Z,63.46
2022-11-16T22:33:20.078Z,63.36
2022-11-16T22:35:48.153Z,63.38
2022-11-16T22:38:16.206Z,63.74
2022-11-16T22:40:51.893Z,63.49
2022-11-16T22:43:22.104Z,63.74
2022-11-16T22:45:50.596Z,63.46
2022-11-16T22:48:18.743Z,63.32
2022-11-16T22:50:46.919Z,62.89
2022-11-16T22:53:15.092Z,62.82
2022-11-16T22:55:43.367Z,62.91
2022-11-16T22:58:11.438Z,62.69
2022-11-16T23:00:42.186Z,62.71
2022-11-16T23:03:10.704Z,62.78
2022-11-16T23:05:38.921Z,62.94
2022-11-16T23:08:07.198Z,63.09
2022-11-16T23:10:55.244Z,62.65
2022-11-16T23:13:41.844Z,63.16
2022-11-16T23:16:09.913Z,62.84
2022-11-16T23:18:37.969Z,62.99
2022-11-16T23:21:24.633Z,63.00
2022-11-16T23:24:11.499Z,62.78
2022-11-16T23:26:58.622Z,62.66
2022-11-16T23:29:26.903Z,62.63
2022-11-16T23:31:55.067Z,62.73
2022-11-16T23:34:23.124Z,62.66
2022-11-16T23:36:51.212Z,62.78
2022-11-16T23:39:19.481Z,62.47
2022-11-16T23:42:05.987Z,62.74
2022-11-16T23:44:34.009Z,62.83
2022-11-16T23:47:02.128Z,62.99
2022-11-16T23:49:30.303Z,62.68
2022-11-16T23:51:58.351Z,62.80
2022-11-16T23:54:26.645Z,62.88
2022-11-16T23:56:54.719Z,62.76
2022-11-16T23:59:22.767Z,62.84
